Time;durP1;ratioP1;P1;durP2;ratioP2;P2;SDS_P1;SDS_P2;PMS_P1;PMS_P2;Temp;Humidity;BMP_temperature;BMP_pressure;BME280_temperature;BME280_humidity;BME280_pressure;Samples;Min_cycle;Max_cycle;Signal;HPM_P1;HPM_P2
2023/08/26 00:00:34;;;;;;;25.10;13.80;;;;;;;24.32;51.63;100045.23;107871;1257;60451;-67
2023/08/26 00:03:01;;;;;;;24.00;12.80;;;;;;;24.37;51.67;100048.05;107860;1254;73881;-67
2023/08/26 00:05:29;;;;;;;28.10;12.90;;;;;;;24.27;51.79;100047.02;107879;1260;70171;-67
2023/08/26 00:07:56;;;;;;;22.10;13.00;;;;;;;24.24;52.05;100050.85;107842;1259;72647;-67
2023/08/26 00:10:24;;;;;;;20.60;11.80;;;;;;;24.18;52.35;100050.80;107838;1256;61719;-67
2023/08/26 00:12:52;;;;;;;23.40;12.50;;;;;;;24.16;52.48;100050.23;107993;1258;60563;-68
2023/08/26 00:15:19;;;;;;;18.50;11.00;;;;;;;24.22;52.27;100051.63;107903;1257;73771;-68
2023/08/26 00:17:47;;;;;;;26.60;12.20;;;;;;;24.15;52.40;100053.56;107886;1258;69071;-67
2023/08/26 00:20:15;;;;;;;24.30;12.90;;;;;;;24.18;52.33;100052.56;107881;1256;73608;-68
2023/08/26 00:22:43;;;;;;;17.30;10.30;;;;;;;24.09;52.57;100051.23;107918;1257;62217;-68
2023/08/26 00:25:11;;;;;;;24.20;13.00;;;;;;;24.10;52.57;100049.57;107877;1257;60421;-67
2023/08/26 00:27:38;;;;;;;16.60;11.20;;;;;;;24.16;52.58;100052.23;107926;1258;73843;-67
2023/08/26 00:30:07;;;;;;;15.50;10.60;;;;;;;23.90;53.07;100050.88;107970;1255;68875;-67
2023/08/26 00:32:34;;;;;;;27.30;12.90;;;;;;;23.88;53.16;100051.62;107905;1260;71216;-68
2023/08/26 00:35:01;;;;;;;18.00;11.60;;;;;;;23.91;53.12;100050.83;107735;1256;61685;-68
2023/08/26 00:37:31;;;;;;;26.40;14.10;;;;;;;23.66;53.80;100047.73;107901;1254;60054;-68
2023/08/26 00:39:58;;;;;;;22.80;13.50;;;;;;;23.78;53.48;100047.91;107780;1254;73814;-68
2023/08/26 00:42:26;;;;;;;21.00;12.70;;;;;;;23.58;54.03;100049.36;107790;1260;69041;-68
2023/08/26 00:44:53;;;;;;;27.00;13.70;;;;;;;23.75;53.65;100054.06;107923;1256;72641;-68
2023/08/26 00:47:21;;;;;;;21.30;12.50;;;;;;;23.88;53.46;100062.58;107932;1257;60564;-67
2023/08/26 00:49:48;;;;;;;21.20;13.10;;;;;;;23.80;53.69;100052.86;107781;1254;60425;-66
2023/08/26 00:52:15;;;;;;;21.00;14.00;;;;;;;23.87;53.54;100053.50;107669;1257;74459;-67
2023/08/26 00:54:43;;;;;;;26.50;14.30;;;;;;;23.77;53.84;100046.88;107643;1260;70369;-67
2023/08/26 00:57:10;;;;;;;24.60;14.30;;;;;;;23.81;53.73;100049.59;107831;1257;72644;-68
2023/08/26 00:59:37;;;;;;;23.10;12.80;;;;;;;23.79;53.65;100052.15;107766;1257;62238;-69
2023/08/26 01:02:05;;;;;;;24.10;12.80;;;;;;;23.72;53.68;100052.00;107643;1258;60272;-68
2023/08/26 01:04:32;;;;;;;27.70;14.00;;;;;;;23.55;54.19;100047.30;107751;1254;73835;-67
2023/08/26 01:07:00;;;;;;;24.40;13.90;;;;;;;23.56;54.36;100042.01;107768;1258;70319;-68
2023/08/26 01:09:27;;;;;;;23.70;14.40;;;;;;;23.53;54.28;100040.14;107905;1257;71687;-68
2023/08/26 01:12:03;;;;;;;27.00;14.60;;;;;;;23.44;54.56;100037.94;107926;1255;61643;-67
2023/08/26 01:14:36;;;;;;;24.90;14.00;;;;;;;23.52;54.39;100035.42;107850;1257;60464;-67
2023/08/26 01:17:05;;;;;;;29.20;14.80;;;;;;;23.45;54.48;100030.89;107846;1255;73985;-67
2023/08/26 01:19:39;;;;;;;27.70;15.50;;;;;;;23.44;54.42;100030.05;107981;1259;70251;-67
2023/08/26 01:22:08;;;;;;;25.60;15.90;;;;;;;23.42;54.54;100027.21;107948;1257;71942;-67
2023/08/26 01:24:36;;;;;;;27.10;15.20;;;;;;;23.19;55.01;100024.23;107818;1261;60773;-68
2023/08/26 01:27:04;;;;;;;24.40;13.50;;;;;;;23.33;54.75;100028.58;107911;1254;59282;-66
2023/08/26 01:29:31;;;;;;;29.80;15.00;;;;;;;23.15;55.13;100028.00;107907;1254;73854;-66
2023/08/26 01:32:17;;;;;;;28.40;15.70;;;;;;;23.07;55.53;100031.98;107918;1260;68903;-67
2023/08/26 01:34:47;;;;;;;23.80;14.10;;;;;;;23.37;54.88;100029.08;107845;1261;71254;-67
2023/08/26 01:37:15;;;;;;;25.60;14.90;;;;;;;23.53;54.50;100026.73;107702;1257;61649;-67
2023/08/26 01:39:44;;;;;;;22.10;13.80;;;;;;;23.43;54.76;100025.14;107926;1254;60692;-68
2023/08/26 01:42:12;;;;;;;23.10;14.60;;;;;;;23.26;55.19;100021.81;108063;1253;72924;-66
2023/08/26 01:44:41;;;;;;;30.00;14.70;;;;;;;23.35;55.05;100019.55;108092;1254;68651;-67
2023/08/26 01:47:08;;;;;;;26.90;14.30;;;;;;;23.68;54.27;100021.05;108104;1255;71441;-66
2023/08/26 01:49:35;;;;;;;26.40;14.90;;;;;;;23.72;54.34;100019.05;108056;1258;60947;-67
2023/08/26 01:52:03;;;;;;;29.40;15.80;;;;;;;23.45;54.72;100014.94;108017;1254;60421;-68
2023/08/26 01:54:30;;;;;;;26.80;14.50;;;;;;;23.23;55.40;100014.06;107927;1254;72573;-68
2023/08/26 01:56:58;;;;;;;23.40;15.20;;;;;;;23.31;55.28;100016.91;108045;1254;68835;-68
2023/08/26 01:59:25;;;;;;;23.10;14.60;;;;;;;23.23;55.41;100015.02;107894;1254;70147;-67
2023/08/26 02:01:53;;;;;;;25.80;14.90;;;;;;;23.14;55.48;100020.27;107932;1260;61661;-67
2023/08/26 02:04:21;;;;;;;26.60;15.60;;;;;;;23.15;55.47;100022.46;107999;1254;60052;-68
2023/08/26 02:06:49;;;;;;;24.20;12.80;;;;;;;23.15;55.69;100021.95;108002;1254;71930;-68
2023/08/26 02:09:16;;;;;;;27.10;14.40;;;;;;;23.05;55.79;100022.88;107988;1259;70203;-67
2023/08/26 02:11:45;;;;;;;23.50;14.30;;;;;;;23.06;55.79;100023.46;108034;1254;72728;-67
2023/08/26 02:14:12;;;;;;;22.60;13.90;;;;;;;22.99;56.05;100020.55;107725;1257;61142;-67
2023/08/26 02:16:40;;;;;;;30.50;16.30;;;;;;;23.03;56.06;100020.35;108000;1254;60363;-67
2023/08/26 02:19:07;;;;;;;24.10;13.70;;;;;;;23.20;55.83;100020.48;107849;1254;71529;-67
2023/08/26 02:21:34;;;;;;;22.60;15.10;;;;;;;23.43;55.25;100024.02;107946;1258;69995;-66
2023/08/26 02:24:02;;;;;;;29.30;16.30;;;;;;;23.26;55.73;100024.13;107874;1260;71600;-68
2023/08/26 02:26:29;;;;;;;26.50;14.60;;;;;;;23.14;56.02;100023.33;107966;1254;61649;-67
2023/08/26 02:28:56;;;;;;;27.30;16.30;;;;;;;23.04;56.40;100022.05;107997;1257;60165;-67
2023/08/26 02:31:24;;;;;;;22.00;13.90;;;;;;;23.05;56.44;100024.63;107828;1254;73919;-65
2023/08/26 02:33:51;;;;;;;25.60;14.70;;;;;;;23.16;56.24;100025.58;107938;1259;69389;-66
2023/08/26 02:36:19;;;;;;;29.20;15.40;;;;;;;23.20;56.00;100026.31;107955;1257;73205;-67
2023/08/26 02:38:47;;;;;;;20.20;13.00;;;;;;;23.15;56.08;100027.45;107979;1255;60947;-67
2023/08/26 02:41:14;;;;;;;23.70;14.40;;;;;;;23.15;56.30;100022.31;107877;1253;60437;-67
2023/08/26 02:43:42;;;;;;;28.40;14.40;;;;;;;23.16;56.15;100020.19;107881;1254;73873;-68
2023/08/26 02:46:09;;;;;;;28.70;14.50;;;;;;;23.16;56.43;100019.86;107855;1254;70544;-66
2023/08/26 02:48:37;;;;;;;26.50;15.40;;;;;;;23.19;56.37;100015.01;107985;1257;73266;-66
2023/08/26 02:51:05;;;;;;;27.80;15.30;;;;;;;23.18;56.22;100012.68;107948;1254;61768;-67
2023/08/26 02:53:32;;;;;;;26.60;14.60;;;;;;;23.20;56.18;100009.86;108037;1259;59064;-68
2023/08/26 02:56:00;;;;;;;25.20;14.50;;;;;;;23.31;55.97;100012.08;107859;1254;73607;-66
2023/08/26 02:58:27;;;;;;;28.40;13.90;;;;;;;23.34;55.99;100012.00;107970;1254;70486;-66
2023/08/26 03:00:59;;;;;;;30.80;16.50;;;;;;;23.27;56.08;100011.55;108040;1255;72707;-67
2023/08/26 03:03:27;;;;;;;26.40;14.70;;;;;;;23.30;56.14;100013.61;108028;1254;60459;-66
2023/08/26 03:05:57;;;;;;;24.40;13.60;;;;;;;23.41;56.01;100017.59;108003;1254;59852;-67
2023/08/26 03:08:25;;;;;;;28.10;15.00;;;;;;;23.51;55.75;100020.81;107809;1260;73432;-67
2023/08/26 03:11:03;;;;;;;23.80;12.80;;;;;;;23.44;55.91;100021.08;107966;1254;69955;-67
2023/08/26 03:13:31;;;;;;;25.20;14.40;;;;;;;23.40;56.10;100016.67;107992;1255;72926;-67
2023/08/26 03:16:07;;;;;;;23.40;13.90;;;;;;;23.45;56.02;100017.92;108043;1257;62134;-66
2023/08/26 03:18:35;;;;;;;27.60;14.90;;;;;;;23.57;55.82;100020.42;108045;1254;60392;-68
2023/08/26 03:21:04;;;;;;;23.70;15.00;;;;;;;23.46;56.10;100018.89;107894;1260;73824;-68
2023/08/26 03:23:32;;;;;;;24.30;14.10;;;;;;;23.55;55.92;100020.45;108068;1254;70152;-67
2023/08/26 03:25:59;;;;;;;21.30;13.80;;;;;;;23.49;56.12;100020.05;107866;1254;72711;-68
2023/08/26 03:28:26;;;;;;;27.80;14.50;;;;;;;23.54;55.89;100026.05;107898;1257;61734;-68
2023/08/26 03:31:02;;;;;;;19.70;13.10;;;;;;;23.67;55.95;100027.23;107946;1254;60440;-67
2023/08/26 03:33:30;;;;;;;31.00;16.20;;;;;;;23.67;55.86;100032.73;107871;1254;72565;-68
2023/08/26 03:35:57;;;;;;;21.30;14.30;;;;;;;23.74;55.74;100029.09;107823;1254;69187;-68
2023/08/26 03:38:26;;;;;;;25.70;14.40;;;;;;;23.93;55.30;100027.61;107919;1257;72760;-67
2023/08/26 03:40:53;;;;;;;24.60;15.20;;;;;;;23.86;55.32;100021.38;107755;1254;62213;-67
2023/08/26 03:43:21;;;;;;;25.90;15.20;;;;;;;23.82;55.51;100020.23;107683;1256;59954;-66
2023/08/26 03:45:48;;;;;;;23.70;14.70;;;;;;;23.91;55.17;100026.05;107840;1254;72700;-65
2023/08/26 03:48:16;;;;;;;24.80;14.60;;;;;;;24.04;54.97;100027.52;107700;1254;69358;-67
2023/08/26 03:50:54;;;;;;;22.30;13.00;;;;;;;24.18;54.73;100022.96;107865;1256;73041;-68
2023/08/26 03:53:22;;;;;;;22.80;14.20;;;;;;;24.23;54.64;100024.27;107865;1260;61701;-67
2023/08/26 03:55:49;;;;;;;20.80;13.90;;;;;;;24.31;54.34;100022.22;107860;1254;60447;-67
2023/08/26 03:58:18;;;;;;;23.00;14.80;;;;;;;24.38;54.29;100022.09;107908;1254;72948;-66
2023/08/26 04:00:45;;;;;;;23.30;13.90;;;;;;;24.44;54.16;100022.42;107835;1257;70291;-67
2023/08/26 04:03:12;;;;;;;24.50;13.50;;;;;;;24.43;54.15;100021.06;107884;1256;72683;-67
2023/08/26 04:05:40;;;;;;;24.50;13.30;;;;;;;24.53;53.75;100011.74;107734;1254;60273;-68
2023/08/26 04:08:07;;;;;;;27.30;13.40;;;;;;;24.49;53.89;100009.06;107932;1254;60349;-67
2023/08/26 04:10:35;;;;;;;21.60;12.30;;;;;;;24.51;53.92;100011.70;107742;1255;72574;-68
2023/08/26 04:13:18;;;;;;;23.60;13.90;;;;;;;24.72;53.78;100004.14;107723;1260;70408;-67
2023/08/26 04:15:46;;;;;;;25.80;13.20;;;;;;;24.95;53.77;100002.73;107830;1257;72743;-67
2023/08/26 04:18:14;;;;;;;31.10;13.60;;;;;;;25.10;53.50;100002.48;107883;1258;61720;-68
2023/08/26 04:20:44;;;;;;;23.80;13.90;;;;;;;25.21;52.97;100000.52;107766;1257;60307;-67
2023/08/26 04:23:12;;;;;;;24.60;13.80;;;;;;;25.35;52.73;100001.77;107745;1256;74280;-68
2023/08/26 04:25:40;;;;;;;25.10;13.20;;;;;;;25.68;52.52;99998.98;107788;1256;68815;-67
2023/08/26 04:28:08;;;;;;;28.10;12.70;;;;;;;26.26;51.43;99991.23;107818;1259;72427;-67
2023/08/26 04:30:36;;;;;;;24.90;12.50;;;;;;;26.86;50.28;99982.55;107748;1261;61857;-67
2023/08/26 04:33:04;;;;;;;24.10;12.40;;;;;;;27.55;48.85;99981.77;107857;1259;60188;-67
2023/08/26 04:35:32;;;;;;;21.00;12.10;;;;;;;28.24;47.25;99983.45;107809;1254;74265;-68
2023/08/26 04:38:00;;;;;;;24.80;12.60;;;;;;;28.76;45.71;99980.79;107860;1257;69170;-66
2023/08/26 04:40:28;;;;;;;25.60;12.40;;;;;;;29.38;43.98;99983.82;107790;1256;71509;-68
2023/08/26 04:42:56;;;;;;;20.30;13.00;;;;;;;29.89;42.63;99981.71;107917;1257;60406;-68
2023/08/26 04:45:24;;;;;;;16.80;7.90;;;;;;;30.53;40.02;99974.67;107931;1254;58996;-68
2023/08/26 04:47:51;;;;;;;15.30;7.20;;;;;;;30.81;36.98;99969.90;107789;1254;73882;-67
2023/08/26 04:50:19;;;;;;;9.70;5.60;;;;;;;30.99;36.68;99972.08;107856;1254;69271;-68
2023/08/26 04:52:46;;;;;;;13.70;6.00;;;;;;;31.19;35.15;99975.33;107808;1257;72455;-69
2023/08/26 04:55:14;;;;;;;9.70;5.10;;;;;;;31.62;34.60;99980.94;107752;1257;60520;-68
2023/08/26 04:57:41;;;;;;;10.10;5.50;;;;;;;32.12;33.27;99984.66;107883;1254;60585;-67
2023/08/26 05:00:10;;;;;;;9.50;5.70;;;;;;;32.53;32.95;99980.73;107748;1254;73860;-68
2023/08/26 05:02:38;;;;;;;10.90;5.70;;;;;;;32.72;32.70;99976.19;107916;1254;68789;-69
2023/08/26 05:05:07;;;;;;;9.60;5.50;;;;;;;32.99;32.34;99973.66;107909;1255;71450;-68
2023/08/26 05:07:35;;;;;;;7.30;5.20;;;;;;;33.42;31.85;99976.29;107886;1256;60341;-68
2023/08/26 05:10:03;;;;;;;14.40;6.00;;;;;;;33.72;30.71;99970.30;107863;1254;62747;-68
2023/08/26 05:12:31;;;;;;;9.00;4.70;;;;;;;33.93;30.50;99968.70;107757;1258;63652;-69
2023/08/26 05:15:00;;;;;;;8.50;5.80;;;;;;;34.16;29.99;99964.39;107931;1254;61698;-67
2023/08/26 05:17:27;;;;;;;11.70;5.40;;;;;;;33.87;30.26;99963.85;107906;1256;62538;-68
2023/08/26 05:19:55;;;;;;;12.50;5.30;;;;;;;33.59;30.72;99961.00;107881;1256;60425;-68
2023/08/26 05:22:23;;;;;;;9.40;5.80;;;;;;;33.14;31.22;99962.90;107932;1254;60930;-67
2023/08/26 05:24:50;;;;;;;8.50;5.10;;;;;;;32.78;31.79;99969.04;107953;1253;64923;-67
2023/08/26 05:27:19;;;;;;;11.90;5.70;;;;;;;32.37;32.34;99971.71;107997;1254;69906;-68
2023/08/26 05:29:47;;;;;;;10.40;5.70;;;;;;;32.01;33.07;99974.75;108017;1255;71172;-68
2023/08/26 05:32:15;;;;;;;14.80;5.90;;;;;;;31.70;33.95;99971.20;108065;1256;60437;-68
2023/08/26 05:34:43;;;;;;;10.00;5.60;;;;;;;31.50;34.41;99965.70;108003;1254;59256;-67
2023/08/26 05:37:10;;;;;;;14.80;6.30;;;;;;;31.34;34.63;99959.59;108021;1253;74330;-68
2023/08/26 05:39:38;;;;;;;8.40;5.80;;;;;;;31.10;34.83;99960.05;108008;1253;70547;-68
2023/08/26 05:42:06;;;;;;;14.00;6.30;;;;;;;30.98;34.96;99958.25;108070;1255;73218;-68
2023/08/26 05:44:33;;;;;;;13.20;6.40;;;;;;;31.22;34.62;99960.48;108050;1254;60277;-66
2023/08/26 05:47:01;;;;;;;11.40;5.80;;;;;;;31.47;34.28;99963.55;108102;1253;60395;-69
2023/08/26 05:49:30;;;;;;;11.00;5.70;;;;;;;32.08;33.65;99963.39;108106;1254;72959;-69
2023/08/26 05:51:57;;;;;;;14.60;6.10;;;;;;;32.39;33.07;99965.14;108075;1254;68689;-68
2023/08/26 05:54:25;;;;;;;15.70;6.40;;;;;;;32.68;32.65;99959.61;108045;1258;72743;-69
2023/08/26 05:56:53;;;;;;;12.30;5.40;;;;;;;33.19;32.10;99960.96;107970;1253;60342;-68
2023/08/26 05:59:20;;;;;;;12.20;5.30;;;;;;;33.67;31.12;99961.52;108006;1254;60229;-68
2023/08/26 06:01:48;;;;;;;10.20;5.00;;;;;;;33.90;30.34;99965.91;108026;1253;64929;-67
2023/08/26 06:04:15;;;;;;;11.20;5.70;;;;;;;34.15;30.10;99963.39;107849;1254;61300;-68
2023/08/26 06:06:43;;;;;;;11.40;5.30;;;;;;;34.34;30.11;99960.80;108022;1256;62472;-69
2023/08/26 06:09:13;;;;;;;7.10;4.80;;;;;;;34.83;29.84;99960.10;107993;1253;60655;-70
2023/08/26 06:11:41;;;;;;;10.80;5.10;;;;;;;35.18;28.86;99959.31;107820;1253;59626;-69
2023/08/26 06:14:09;;;;;;;13.30;5.10;;;;;;;35.23;28.29;99956.02;107747;1253;64999;-68
2023/08/26 06:16:36;;;;;;;8.70;4.90;;;;;;;35.57;28.42;99954.73;107867;1254;61546;-68
2023/08/26 06:19:04;;;;;;;11.90;4.50;;;;;;;35.98;27.84;99954.47;107975;1256;63723;-68
2023/08/26 06:21:32;;;;;;;11.40;4.60;;;;;;;36.36;27.17;99952.30;107811;1254;60184;-68
2023/08/26 06:23:59;;;;;;;9.20;4.90;;;;;;;36.67;27.03;99950.03;108021;1253;60431;-70
2023/08/26 06:26:27;;;;;;;14.90;5.40;;;;;;;37.02;26.85;99946.46;107977;1259;65014;-68
2023/08/26 06:28:54;;;;;;;11.30;5.20;;;;;;;37.24;26.33;99948.23;107931;1256;62632;-69
2023/08/26 06:31:21;;;;;;;13.70;5.40;;;;;;;37.28;26.58;99948.17;107792;1257;62443;-69
2023/08/26 06:33:49;;;;;;;11.30;5.00;;;;;;;37.40;26.12;99947.25;107737;1256;60424;-68
2023/08/26 06:36:17;;;;;;;15.00;5.00;;;;;;;37.25;26.22;99943.15;107860;1256;60418;-69
2023/08/26 06:38:44;;;;;;;9.70;4.60;;;;;;;36.67;26.49;99949.55;107877;1259;64924;-69
2023/08/26 06:41:13;;;;;;;10.50;4.60;;;;;;;36.19;26.95;99949.45;107694;1256;61600;-68
2023/08/26 06:43:41;;;;;;;8.80;4.60;;;;;;;36.10;27.08;99950.98;107976;1256;63793;-68
2023/08/26 06:46:10;;;;;;;7.40;4.20;;;;;;;35.61;27.04;99952.29;107886;1256;60437;-68
2023/08/26 06:51:36;;;;;;;9.90;4.40;;;;;;;33.66;29.45;99948.48;104949;1289;600916;-68
2023/08/26 06:54:05;;;;;;;12.70;4.70;;;;;;;34.19;28.29;99948.33;107301;1264;59165;-68
2023/08/26 06:56:32;;;;;;;8.30;4.20;;;;;;;34.11;28.07;99947.50;107325;1264;61612;-69
2023/08/26 06:58:59;;;;;;;8.10;3.90;;;;;;;34.01;28.02;99944.43;107307;1264;63301;-68
2023/08/26 07:01:27;;;;;;;15.90;5.10;;;;;;;34.20;28.06;99939.77;107300;1264;60260;-68
2023/08/26 07:04:06;;;;;;;7.70;4.10;;;;;;;34.37;27.92;99944.58;107288;1267;62495;-67
2023/08/26 07:06:35;;;;;;;10.90;4.50;;;;;;;34.26;27.67;99945.40;107186;1264;58978;-67
2023/08/26 07:09:04;;;;;;;6.70;4.20;;;;;;;34.13;27.71;99953.38;107371;1263;59287;-67
2023/08/26 07:11:32;;;;;;;7.40;4.60;;;;;;;34.15;28.13;99957.16;107353;1263;62122;-67
2023/08/26 07:13:59;;;;;;;7.20;4.30;;;;;;;34.29;28.49;99959.38;107393;1264;63807;-68
2023/08/26 07:16:27;;;;;;;7.90;3.80;;;;;;;34.53;27.88;99957.77;107369;1263;63859;-69
2023/08/26 07:18:55;;;;;;;9.70;4.00;;;;;;;34.87;27.17;99953.91;107408;1264;59132;-68
2023/08/26 07:21:23;;;;;;;9.20;3.90;;;;;;;35.25;26.58;99954.49;107274;1264;59615;-68
2023/08/26 07:23:50;;;;;;;8.30;3.40;;;;;;;35.75;25.91;99958.78;107342;1264;62893;-68
2023/08/26 07:26:18;;;;;;;10.70;3.90;;;;;;;35.89;25.22;99957.56;107341;1263;61873;-69
2023/08/26 07:28:46;;;;;;;8.40;3.90;;;;;;;36.09;25.07;99959.80;107329;1264;62532;-68
2023/08/26 07:31:14;;;;;;;10.40;3.90;;;;;;;36.07;24.94;99959.77;108700;1263;57357;-70
2023/08/26 07:33:41;;;;;;;10.30;4.10;;;;;;;36.01;25.07;99961.58;108631;1265;57444;-69
2023/08/26 07:36:09;;;;;;;9.70;4.00;;;;;;;35.98;25.05;99963.33;109022;1257;64196;-69
2023/08/26 07:38:37;;;;;;;7.90;3.80;;;;;;;36.17;25.00;99965.30;109006;1257;60130;-69
2023/08/26 07:41:05;;;;;;;6.70;3.90;;;;;;;36.39;25.05;99958.64;109031;1256;63826;-70
2023/08/26 07:43:33;;;;;;;6.20;4.00;;;;;;;36.49;24.83;99959.36;108995;1257;57370;-69
2023/08/26 07:46:01;;;;;;;12.40;4.20;;;;;;;36.52;24.62;99963.34;109074;1257;57335;-69
2023/08/26 07:48:31;;;;;;;8.80;4.00;;;;;;;36.70;24.31;99961.69;109015;1257;62890;-70
2023/08/26 07:51:01;;;;;;;10.10;5.10;;;;;;;36.78;24.14;99960.48;109029;1257;71191;-70
2023/08/26 07:53:29;;;;;;;12.50;4.70;;;;;;;36.82;24.15;99955.02;109033;1257;63905;-69
2023/08/26 07:55:56;;;;;;;14.60;4.40;;;;;;;36.88;24.09;99948.61;109249;1257;57325;-70
2023/08/26 07:58:24;;;;;;;12.40;4.10;;;;;;;36.85;24.21;99943.74;109264;1256;59656;-70
2023/08/26 08:00:51;;;;;;;12.20;4.40;;;;;;;37.01;23.85;99943.24;109202;1256;62775;-69
2023/08/26 08:03:18;;;;;;;11.10;3.50;;;;;;;37.06;23.63;99941.23;109126;1255;61295;-69
2023/08/26 08:05:47;;;;;;;7.20;2.90;;;;;;;37.63;23.08;99942.70;109059;1256;63751;-69
2023/08/26 08:10:38;;;;;;;6.60;3.20;;;;;;;38.22;22.28;99946.02;104830;1290;601156;-69
2023/08/26 08:13:05;;;;;;;11.50;2.90;;;;;;;38.52;22.01;99936.40;107435;1264;59143;-68
2023/08/26 08:15:32;;;;;;;9.70;3.50;;;;;;;38.49;21.71;99930.46;107348;1264;59225;-68
2023/08/26 08:17:58;;;;;;;7.20;2.90;;;;;;;38.50;21.93;99925.87;107405;1264;63813;-69
2023/08/26 08:20:25;;;;;;;7.40;3.20;;;;;;;38.41;21.69;99926.98;107463;1264;61901;-69
2023/08/26 08:22:52;;;;;;;9.90;2.80;;;;;;;38.66;21.67;99924.38;107231;1264;206240;-70
2023/08/26 08:25:19;;;;;;;8.70;3.10;;;;;;;38.84;21.43;99920.21;107558;1262;59215;-68
2023/08/26 08:27:45;;;;;;;7.20;2.80;;;;;;;38.79;21.67;99921.43;107559;1264;59125;-69
2023/08/26 08:30:12;;;;;;;7.40;3.10;;;;;;;39.39;20.85;99919.39;107469;1262;63431;-69
2023/08/26 08:32:39;;;;;;;11.20;3.30;;;;;;;39.78;20.45;99919.89;107482;1262;61865;-68
2023/08/26 08:35:06;;;;;;;9.00;3.20;;;;;;;39.85;19.91;99922.85;107498;1264;64310;-69
2023/08/26 08:37:33;;;;;;;7.90;2.80;;;;;;;39.80;19.64;99914.85;107482;1264;59481;-69
2023/08/26 08:39:59;;;;;;;10.00;3.00;;;;;;;39.87;19.50;99919.63;107413;1264;59320;-69
2023/08/26 08:42:26;;;;;;;10.80;3.20;;;;;;;39.92;19.74;99922.46;107440;1262;64528;-69
2023/08/26 08:44:53;;;;;;;7.70;2.80;;;;;;;39.96;19.78;99925.55;107431;1264;71547;-68
2023/08/26 08:47:19;;;;;;;5.80;2.70;;;;;;;40.15;19.57;99929.88;107363;1263;63753;-69
2023/08/26 08:49:46;;;;;;;8.80;3.00;;;;;;;40.33;19.05;99921.45;107340;1264;60091;-69
2023/08/26 08:52:13;;;;;;;9.70;3.20;;;;;;;40.30;19.26;99924.13;107403;1264;59608;-69
2023/08/26 08:54:40;;;;;;;7.60;2.60;;;;;;;40.16;19.44;99921.94;107542;1262;64128;-67
2023/08/26 08:57:07;;;;;;;10.00;2.90;;;;;;;40.22;19.27;99915.19;107499;1263;61491;-69
2023/08/26 08:59:35;;;;;;;8.20;3.00;;;;;;;40.20;19.09;99911.13;107429;1264;59640;-68
2023/08/26 09:02:02;;;;;;;9.20;3.00;;;;;;;40.44;18.96;99907.28;108388;1250;60128;-69
2023/08/26 09:04:29;;;;;;;5.70;2.60;;;;;;;40.48;18.71;99913.02;108218;1251;59627;-68
2023/08/26 09:06:56;;;;;;;6.20;2.80;;;;;;;40.53;18.39;99904.71;108344;1251;64246;-68
2023/08/26 09:09:22;;;;;;;5.90;2.80;;;;;;;40.63;18.20;99904.34;108431;1251;59447;-69
2023/08/26 09:12:00;;;;;;;8.40;2.80;;;;;;;40.84;17.92;99902.61;108463;1251;63224;-69
2023/08/26 09:14:26;;;;;;;11.90;2.70;;;;;;;40.95;17.64;99900.69;108409;1251;59630;-69
2023/08/26 09:16:54;;;;;;;14.50;3.20;;;;;;;40.44;18.22;99910.20;108422;1252;59509;-70
2023/08/26 09:19:20;;;;;;;10.00;2.60;;;;;;;40.21;18.67;99910.37;108280;1251;62974;-69
2023/08/26 09:21:47;;;;;;;5.30;2.90;;;;;;;40.13;18.78;99902.55;108309;1251;61482;-70
2023/08/26 09:24:15;;;;;;;6.50;2.70;;;;;;;40.21;18.56;99900.27;108330;1251;64457;-68
2023/08/26 09:26:42;;;;;;;5.90;3.00;;;;;;;40.13;18.48;99894.05;108433;1251;59103;-69
2023/08/26 09:29:14;;;;;;;9.60;3.40;;;;;;;40.56;18.35;99890.02;108278;1251;59566;-69
2023/08/26 09:31:48;;;;;;;4.90;2.70;;;;;;;40.82;17.75;99887.30;108165;1251;64214;-69
2023/08/26 09:34:31;;;;;;;8.60;3.10;;;;;;;40.65;18.04;99891.01;108271;1255;60165;-68
2023/08/26 09:36:59;;;;;;;8.80;3.00;;;;;;;40.29;18.46;99887.67;108256;1251;63852;-69
2023/08/26 09:39:26;;;;;;;6.70;3.20;;;;;;;40.24;18.64;99877.74;108297;1251;57820;-68
2023/08/26 09:41:54;;;;;;;5.00;2.90;;;;;;;40.29;18.68;99879.63;108254;1251;59624;-67
2023/08/26 09:44:21;;;;;;;9.50;3.20;;;;;;;40.09;18.57;99878.27;108317;1251;64286;-68
2023/08/26 09:46:48;;;;;;;9.10;3.20;;;;;;;39.56;19.09;99871.39;108284;1251;61671;-68
2023/08/26 09:49:16;;;;;;;11.50;3.50;;;;;;;39.69;19.56;99866.13;108289;1251;63725;-69
2023/08/26 09:51:52;;;;;;;7.60;3.10;;;;;;;39.75;19.46;99870.19;108327;1251;59881;-69
2023/08/26 09:54:21;;;;;;;7.50;3.10;;;;;;;39.84;19.35;99867.99;108376;1255;59527;-69
2023/08/26 09:56:49;;;;;;;5.40;3.20;;;;;;;39.80;19.54;99865.35;108534;1251;65856;-69
2023/08/26 09:59:15;;;;;;;4.20;3.60;;;;;;;39.40;19.67;99872.73;108352;1251;61778;-68
2023/08/26 10:01:42;;;;;;;7.70;3.50;;;;;;;39.07;20.22;99873.22;108302;1251;62544;-67
2023/08/26 10:04:10;;;;;;;12.80;3.70;;;;;;;39.31;20.09;99872.64;108229;1256;59716;-69
2023/08/26 10:06:47;;;;;;;7.30;3.80;;;;;;;39.27;20.12;99868.31;108401;1251;59505;-68
2023/08/26 10:09:26;;;;;;;18.10;5.00;;;;;;;39.29;20.27;99872.04;108330;1251;64677;-69
2023/08/26 10:11:54;;;;;;;8.10;3.50;;;;;;;39.13;20.48;99873.92;108284;1251;61814;-66
2023/08/26 10:14:22;;;;;;;10.10;3.50;;;;;;;38.93;20.77;99873.88;108391;1251;63955;-68
2023/08/26 10:16:49;;;;;;;32.00;5.50;;;;;;;39.10;20.84;99872.71;108256;1251;59627;-69
2023/08/26 10:19:16;;;;;;;14.40;4.40;;;;;;;39.35;20.65;99867.55;108156;1257;59673;-68
2023/08/26 10:21:43;;;;;;;23.40;5.80;;;;;;;39.52;20.85;99868.92;108338;1251;64304;-68
2023/08/26 10:24:09;;;;;;;11.00;3.90;;;;;;;39.65;21.11;99873.06;108353;1256;60380;-68
2023/08/26 10:26:36;;;;;;;10.80;4.10;;;;;;;39.63;21.73;99873.98;108230;1254;64047;-69
2023/08/26 10:29:03;;;;;;;9.00;4.00;;;;;;;39.52;22.19;99869.76;108153;1254;59608;-68
2023/08/26 10:31:34;;;;;;;7.50;4.30;;;;;;;39.51;22.56;99869.95;108082;1252;59490;-69
2023/08/26 10:34:06;;;;;;;5.80;4.30;;;;;;;39.32;22.92;99869.77;108261;1253;62890;-68
2023/08/26 10:36:37;;;;;;;9.20;4.30;;;;;;;39.09;23.50;99874.73;108337;1254;61759;-68
2023/08/26 10:39:04;;;;;;;;;;;;;;;38.78;24.28;99873.86;108261;1254;64168;-68
2023/08/26 10:41:30;;;;;;;13.00;4.90;;;;;;;38.33;25.26;99879.91;108134;1254;59496;-67
2023/08/26 10:44:01;;;;;;;8.20;4.50;;;;;;;38.19;25.67;99881.02;108345;1253;60191;-68
2023/08/26 10:46:36;;;;;;;7.20;4.50;;;;;;;38.27;26.02;99875.22;108286;1254;64427;-70
2023/08/26 10:49:03;;;;;;;11.10;4.80;;;;;;;38.24;26.00;99871.59;108331;1254;61590;-68
2023/08/26 10:51:30;;;;;;;10.80;5.20;;;;;;;38.16;26.29;99869.28;108290;1254;63785;-70
2023/08/26 10:54:01;;;;;;;10.10;5.40;;;;;;;38.00;26.81;99863.84;108295;1254;59710;-68
2023/08/26 10:56:33;;;;;;;12.00;4.70;;;;;;;38.02;26.76;99863.55;108313;1254;59555;-68
2023/08/26 10:59:03;;;;;;;5.50;4.70;;;;;;;38.06;26.72;99859.79;108190;1254;64431;-70
2023/08/26 11:01:32;;;;;;;;;;;;;;;37.98;26.73;99863.34;108280;1254;61736;-68
2023/08/26 11:03:58;;;;;;;8.30;5.20;;;;;;;37.96;26.99;99863.41;108301;1254;63686;-69
2023/08/26 11:06:25;;;;;;;11.90;5.70;;;;;;;37.85;27.31;99870.49;108285;1254;59704;-68
2023/08/26 11:08:53;;;;;;;10.80;5.00;;;;;;;37.80;27.14;99869.73;108271;1253;59531;-68
2023/08/26 11:11:20;;;;;;;9.20;5.30;;;;;;;37.75;27.27;99866.92;108259;1256;62917;-68
2023/08/26 11:13:47;;;;;;;13.50;5.50;;;;;;;37.66;27.63;99866.80;108246;1254;62055;-68
2023/08/26 11:16:14;;;;;;;11.70;5.10;;;;;;;37.71;27.44;99867.67;108233;1254;64158;-68
2023/08/26 11:18:42;;;;;;;9.60;4.70;;;;;;;37.76;27.60;99867.40;108264;1254;59404;-68
2023/08/26 11:21:09;;;;;;;11.80;5.50;;;;;;;37.61;27.70;99862.50;108396;1254;59562;-68
2023/08/26 11:23:35;;;;;;;14.20;5.70;;;;;;;37.36;28.06;99858.25;108344;1253;64405;-69